createdAt,value
2018-01-02T00:00:49.055Z,6.4
2018-01-02T00:01:58.857Z,6.37
2018-01-02T00:03:08.969Z,6.31
2018-01-02T00:04:19.075Z,6.28
2018-01-02T00:05:29.126Z,6.24
2018-01-02T00:06:39.231Z,6.37
2018-01-02T00:07:49.303Z,6.26
2018-01-02T00:08:59.372Z,6.28
2018-01-02T00:10:09.437Z,6.31
2018-01-02T00:11:19.516Z,6.28
2018-01-02T00:12:29.580Z,6.24
2018-01-02T00:13:39.634Z,6.26
2018-01-02T00:14:49.691Z,6.17
2018-01-02T00:15:59.504Z,6.18
2018-01-02T00:17:09.568Z,6.15
2018-01-02T00:18:19.636Z,6.14
2018-01-02T00:19:29.419Z,6.05
2018-01-02T00:20:39.479Z,6.05
2018-01-02T00:21:49.548Z,6
2018-01-02T00:22:59.618Z,6.05
2018-01-02T00:24:09.727Z,5.99
2018-01-02T00:25:19.845Z,5.95
2018-01-02T00:26:29.879Z,5.89
2018-01-02T00:27:39.665Z,5.95
2018-01-02T00:28:49.461Z,5.88
2018-01-02T00:29:59.515Z,5.84
2018-01-02T00:31:09.618Z,5.87
2018-01-02T00:32:19.655Z,5.91
2018-01-02T00:33:29.697Z,5.91
2018-01-02T00:34:39.739Z,5.77
2018-01-02T00:35:49.810Z,5.82
2018-01-02T00:36:59.869Z,5.82
2018-01-02T00:38:09.934Z,5.81
2018-01-02T00:39:19.976Z,5.82
2018-01-02T00:40:30.037Z,5.75
2018-01-02T00:41:40.087Z,5.8
2018-01-02T00:42:50.137Z,5.8
2018-01-02T00:44:00.180Z,5.77
2018-01-02T00:45:09.708Z,5.64
2018-01-02T00:46:19.764Z,5.69
2018-01-02T00:47:29.836Z,5.67
2018-01-02T00:48:39.960Z,5.64
2018-01-02T00:49:50.015Z,5.55
2018-01-02T00:50:59.825Z,5.62
2018-01-02T00:52:09.886Z,5.55
2018-01-02T00:53:19.728Z,5.49
2018-01-02T00:54:29.829Z,5.49
2018-01-02T00:55:39.628Z,5.49
2018-01-02T00:56:49.682Z,5.57
2018-01-02T00:57:59.462Z,5.54
2018-01-02T00:59:09.271Z,5.54
2018-01-02T01:00:19.349Z,5.54
2018-01-02T01:01:28.967Z,5.45
2018-01-02T01:02:39.023Z,5.55
2018-01-02T01:03:48.830Z,5.39
2018-01-02T01:04:58.614Z,5.39
2018-01-02T01:06:08.724Z,5.42
2018-01-02T01:07:18.790Z,5.41
2018-01-02T01:08:28.880Z,5.33
2018-01-02T01:09:38.933Z,5.36
2018-01-02T01:10:49.009Z,5.33
2018-01-02T01:11:58.816Z,5.33
2018-01-02T01:13:08.895Z,5.3
2018-01-02T01:14:18.934Z,5.13
2018-01-02T01:15:28.973Z,5.15
2018-01-02T01:16:39.023Z,5.15
2018-01-02T01:17:49.094Z,5.08
2018-01-02T01:18:59.138Z,5.08
2018-01-02T01:20:09.222Z,5.03
2018-01-02T01:21:19.020Z,5.05
2018-01-02T01:22:28.826Z,5.02
2018-01-02T01:23:38.886Z,5.06
2018-01-02T01:24:49.000Z,4.95
2018-01-02T01:26:00.098Z,5.09
2018-01-02T01:27:10.154Z,5.09
2018-01-02T01:28:20.231Z,5.09
2018-01-02T01:29:30.282Z,5.16
2018-01-02T01:30:40.344Z,5.12
2018-01-02T01:31:50.418Z,5.16
2018-01-02T01:33:00.490Z,5.2
2018-01-02T01:34:10.540Z,5.12
2018-01-02T01:35:20.441Z,5.12
2018-01-02T01:36:29.986Z,5.02
2018-01-02T01:37:40.044Z,5.05
2018-01-02T01:38:50.083Z,4.97
2018-01-02T01:39:59.896Z,5.06
2018-01-02T01:41:09.749Z,4.83
2018-01-02T01:42:19.812Z,4.95
2018-01-02T01:43:29.899Z,4.88
2018-01-02T01:44:39.704Z,4.88
2018-01-02T01:45:49.764Z,4.85
2018-01-02T01:46:59.812Z,4.9
2018-01-02T01:48:09.875Z,4.92
2018-01-02T01:49:19.662Z,4.83
2018-01-02T01:50:29.712Z,4.91
2018-01-02T01:51:39.753Z,4.84
2018-01-02T01:52:49.852Z,4.9
2018-01-02T01:53:59.890Z,4.9
2018-01-02T01:55:09.719Z,4.95
2018-01-02T01:56:19.527Z,4.85
2018-01-02T01:57:29.574Z,4.79
2018-01-02T01:58:39.150Z,4.79
2018-01-02T01:59:48.670Z,4.68
2018-01-02T02:00:58.719Z,4.72
2018-01-02T02:02:08.776Z,4.68
2018-01-02T02:03:18.814Z,4.72
2018-01-02T02:04:28.860Z,4.69
2018-01-02T02:05:38.900Z,4.68
2018-01-02T02:06:48.956Z,4.66
2018-01-02T02:07:59.006Z,4.66
2018-01-02T02:09:09.060Z,4.65
2018-01-02T02:10:19.115Z,4.69
2018-01-02T02:11:29.163Z,4.65
2018-01-02T02:12:39.214Z,4.65
2018-01-02T02:13:49.273Z,4.6
2018-01-02T02:14:59.316Z,4.6
2018-01-02T02:16:09.421Z,4.53
2018-01-02T02:17:19.469Z,4.61
2018-01-02T02:18:29.247Z,4.61
2018-01-02T02:19:39.287Z,4.61
2018-01-02T02:20:49.348Z,4.6
2018-01-02T02:21:59.130Z,4.66
2018-01-02T02:23:09.232Z,4.68
2018-01-02T02:24:19.291Z,4.71
2018-01-02T02:25:29.331Z,4.61
2018-01-02T02:26:39.118Z,4.65
2018-01-02T02:27:48.960Z,4.69
2018-01-02T02:28:59.026Z,4.78
2018-01-02T02:30:09.067Z,4.72
2018-01-02T02:31:19.114Z,4.76
2018-01-02T02:32:28.908Z,4.76
2018-01-02T02:33:38.972Z,4.87
2018-01-02T02:34:48.775Z,4.88
2018-01-02T02:35:58.576Z,4.85
2018-01-02T02:37:08.421Z,4.98
2018-01-02T02:38:18.195Z,4.98
2018-01-02T02:39:28.295Z,5.03
2018-01-02T02:40:38.088Z,5.08
2018-01-02T02:41:48.147Z,5.18
2018-01-02T02:42:57.956Z,5.2
2018-01-02T02:44:07.998Z,5.28
2018-01-02T02:45:18.052Z,5.18
2018-01-02T02:46:28.104Z,5.31
2018-01-02T02:47:37.899Z,5.34
2018-01-02T02:48:47.968Z,5.37
2018-01-02T02:49:57.782Z,5.37
2018-01-02T02:51:07.845Z,5.34
2018-01-02T02:52:17.918Z,5.31
2018-01-02T02:53:27.730Z,5.31
2018-01-02T02:54:37.779Z,5.3
2018-01-02T02:55:47.835Z,5.41
2018-01-02T02:56:57.885Z,5.48
2018-01-02T02:58:07.941Z,5.41
2018-01-02T02:59:18.032Z,5.41
2018-01-02T03:00:28.073Z,5.36
2018-01-02T03:01:38.130Z,5.33
2018-01-02T03:34:11.563Z,2.77
2018-01-02T03:35:21.615Z,2.7
2018-01-02T03:36:31.395Z,2.77
2018-01-02T03:37:41.420Z,2.95
2018-01-02T03:38:51.460Z,2.88
2018-01-02T03:40:01.314Z,3.11
2018-01-02T03:41:11.109Z,3.23
2018-01-02T03:42:21.171Z,3.39
2018-01-02T03:43:31.226Z,3.57
2018-01-02T03:44:40.749Z,3.75
2018-01-02T03:45:50.808Z,4.02
2018-01-02T03:47:00.908Z,4.14
2018-01-02T03:48:09.920Z,4.15
2018-01-02T03:49:19.716Z,4.38
2018-01-02T03:50:29.764Z,4.54
2018-01-02T03:51:39.550Z,4.68
2018-01-02T03:52:49.606Z,4.78
2018-01-02T03:53:59.405Z,4.92
2018-01-02T03:55:09.460Z,5.13
2018-01-02T03:56:19.513Z,5.15
2018-01-02T03:57:29.572Z,5.24
2018-01-02T03:58:39.357Z,5.34
2018-01-02T03:59:49.411Z,5.45
2018-01-02T04:00:59.691Z,5.46
2018-01-02T04:02:09.746Z,5.54
2018-01-02T04:03:19.534Z,5.69
2018-01-02T04:04:29.588Z,5.7
2018-01-02T04:05:39.385Z,5.78
2018-01-02T04:06:49.434Z,5.82
2018-01-02T04:07:59.505Z,5.87
2018-01-02T04:09:09.557Z,6.05
2018-01-02T04:10:19.618Z,5.98
2018-01-02T04:11:29.662Z,6.1
2018-01-02T04:12:39.720Z,5.98
2018-01-02T04:13:49.767Z,6.06
2018-01-02T04:14:59.880Z,6.07
2018-01-02T04:16:09.405Z,6.07
2018-01-02T04:17:19.190Z,6.09
2018-01-02T04:18:29.232Z,6.18
2018-01-02T04:19:39.017Z,6.17
2018-01-02T04:20:48.962Z,6.26
2018-01-02T04:21:58.996Z,6.21
2018-01-02T04:23:08.798Z,6.18
2018-01-02T04:24:18.835Z,6.33
2018-01-02T04:25:28.612Z,6.29
2018-01-02T04:26:38.700Z,6.28
2018-01-02T04:27:48.470Z,6.33
2018-01-02T04:28:58.506Z,6.29
2018-01-02T04:30:08.568Z,6.47
2018-01-02T04:31:18.614Z,6.37
2018-01-02T04:32:28.667Z,6.44
2018-01-02T04:33:38.712Z,6.34
2018-01-02T04:34:48.775Z,6.33
2018-01-02T04:35:58.825Z,6.4
2018-01-02T04:37:08.613Z,6.51
2018-01-02T04:38:18.650Z,6.44
2018-01-02T04:39:28.694Z,6.47
2018-01-02T04:40:38.738Z,6.54
2018-01-02T04:41:48.516Z,6.55
2018-01-02T04:42:58.304Z,6.62
2018-01-02T04:44:08.354Z,6.68
2018-01-02T04:45:17.927Z,6.64
2018-01-02T04:46:27.970Z,6.78
2018-01-02T04:47:38.013Z,6.78
2018-01-02T04:48:48.076Z,6.78
2018-01-02T04:49:57.862Z,6.75
2018-01-02T04:51:07.906Z,6.73
2018-01-02T04:52:17.437Z,6.79
2018-01-02T04:53:27.488Z,6.78
2018-01-02T04:54:37.528Z,6.72
2018-01-02T04:55:47.364Z,6.78
2018-01-02T04:56:57.427Z,6.72
2018-01-02T04:58:07.202Z,6.65
2018-01-02T04:59:17.248Z,6.67
2018-01-02T05:00:27.293Z,6.68
2018-01-02T05:01:37.405Z,6.67
2018-01-02T05:02:47.447Z,6.7
2018-01-02T05:03:57.243Z,6.73
2018-01-02T05:05:07.295Z,6.7
2018-01-02T05:06:17.348Z,6.65
2018-01-02T05:07:26.879Z,6.62
2018-01-02T05:08:36.665Z,6.65
2018-01-02T05:09:46.196Z,6.6
2018-01-02T05:10:56.249Z,6.62
2018-01-02T05:12:06.310Z,6.68
2018-01-02T05:13:16.104Z,6.67
2018-01-02T05:14:26.149Z,6.67
2018-01-02T05:15:36.203Z,6.7
2018-01-02T05:16:46.005Z,6.7
2018-01-02T05:17:56.057Z,6.7
2018-01-02T05:19:06.116Z,6.73
2018-01-02T05:20:15.923Z,6.72
2018-01-02T05:21:25.709Z,6.64
2018-01-02T05:22:35.767Z,6.75
2018-01-02T05:23:45.814Z,6.68
2018-01-02T05:24:55.406Z,6.79
2018-01-02T05:26:05.457Z,6.78
2018-01-02T05:27:15.491Z,6.7
2018-01-02T05:28:25.566Z,6.78
2018-01-02T05:29:35.605Z,6.76
2018-01-02T05:30:45.468Z,6.68
2018-01-02T05:31:55.280Z,6.72
2018-01-02T05:33:05.334Z,6.68
2018-01-02T05:34:15.380Z,6.73
2018-01-02T05:35:25.173Z,6.73
2018-01-02T05:36:35.292Z,6.76
2018-01-02T05:37:45.342Z,6.8
2018-01-02T05:38:55.384Z,6.68
2018-01-02T05:40:05.450Z,6.7
2018-01-02T05:41:15.509Z,6.82
2018-01-02T05:42:25.311Z,6.78
2018-01-02T05:43:35.418Z,6.8
2018-01-02T05:44:45.479Z,6.83
2018-01-02T05:45:55.532Z,7.01
2018-01-02T05:47:05.569Z,7.01
2018-01-02T05:48:15.362Z,7.04
2018-01-02T05:49:25.404Z,7.09
2018-01-02T05:50:35.195Z,7.21
2018-01-02T05:51:45.241Z,7.19
2018-01-02T05:52:55.044Z,7.21
2018-01-02T05:54:05.142Z,7.18
2018-01-02T05:55:15.194Z,7.45
2018-01-02T05:56:25.241Z,7.39
2018-01-02T05:57:35.296Z,7.52
2018-01-02T05:58:45.349Z,7.61
2018-01-02T05:59:55.473Z,7.75
2018-01-02T06:01:05.533Z,7.89
2018-01-02T06:02:15.571Z,8.01
2018-01-02T06:03:25.361Z,8.17
2018-01-02T06:04:35.413Z,8.36
2018-01-02T06:05:45.251Z,8.57
2018-01-02T06:06:55.045Z,8.57
2018-01-02T06:08:05.140Z,8.74
2018-01-02T06:09:14.678Z,8.76
2018-01-02T06:10:24.459Z,8.89
2018-01-02T06:11:34.552Z,8.98
2018-01-02T06:12:44.347Z,9.05
2018-01-02T06:13:54.403Z,9.14
2018-01-02T06:15:04.471Z,9.23
2018-01-02T06:16:14.506Z,9.27
2018-01-02T06:17:24.367Z,9.35
2018-01-02T06:18:34.426Z,9.34
2018-01-02T06:19:44.495Z,9.35
2018-01-02T06:20:54.544Z,9.45
2018-01-02T06:22:04.333Z,9.53
2018-01-02T06:23:14.382Z,9.52
2018-01-02T06:24:24.432Z,9.48
2018-01-02T06:25:34.471Z,9.6
2018-01-02T06:26:44.532Z,9.55
2018-01-02T06:27:54.577Z,9.57
2018-01-02T06:29:04.633Z,9.55
2018-01-02T06:30:14.713Z,9.55
2018-01-02T06:31:24.759Z,9.63
2018-01-02T06:32:34.803Z,9.6
2018-01-02T06:33:44.860Z,9.6
2018-01-02T06:34:54.725Z,9.7
2018-01-02T06:36:04.657Z,9.64
2018-01-02T06:37:14.714Z,9.67
2018-01-02T06:38:24.760Z,9.75
2018-01-02T06:39:34.842Z,9.63
2018-01-02T06:40:44.958Z,9.75
2018-01-02T06:41:55.000Z,9.74
2018-01-02T06:43:05.044Z,9.84
2018-01-02T06:44:15.095Z,9.88
2018-01-02T06:45:24.911Z,9.88
2018-01-02T06:46:34.958Z,9.89
2018-01-02T06:47:44.817Z,9.84
2018-01-02T06:48:54.856Z,9.84
2018-01-02T06:50:04.915Z,9.88
2018-01-02T06:51:14.960Z,9.93
2018-01-02T06:52:25.713Z,9.95
2018-01-02T06:53:35.234Z,10.03
2018-01-02T06:54:45.286Z,10.05
2018-01-02T06:55:55.328Z,10.1
2018-01-02T06:57:05.378Z,10.14
2018-01-02T06:58:15.425Z,10.2
2018-01-02T06:59:25.243Z,10.25
2018-01-02T07:00:35.065Z,10.2
2018-01-02T07:01:45.098Z,10.21
2018-01-02T07:02:54.879Z,10.26
2018-01-02T07:04:04.928Z,10.23
2018-01-02T07:05:15.031Z,10.23
2018-01-02T07:06:25.068Z,10.2
2018-01-02T07:07:35.129Z,10.15
2018-01-02T07:08:45.192Z,10.14
2018-01-02T07:09:54.992Z,10.18
2018-01-02T07:11:04.776Z,10.13
2018-01-02T07:12:14.837Z,10.14
2018-01-02T07:13:24.889Z,10.13
2018-01-02T07:14:34.960Z,10.29
2018-01-02T07:15:45.006Z,10.26
2018-01-02T07:16:55.085Z,10.26
2018-01-02T07:18:05.150Z,10.15
2018-01-02T07:19:15.199Z,10.21
2018-01-02T07:20:25.250Z,10.25
2018-01-02T07:21:34.793Z,10.25
2018-01-02T07:22:44.848Z,10.28
2018-01-02T07:23:54.653Z,10.31
2018-01-02T07:25:04.735Z,10.26
2018-01-02T07:26:14.787Z,10.21
2018-01-02T07:27:24.861Z,10.35
2018-01-02T07:28:34.667Z,10.28
2018-01-02T07:29:44.698Z,10.29
2018-01-02T07:30:54.750Z,10.36
2018-01-02T07:32:04.816Z,10.42
2018-01-02T07:33:14.932Z,10.38
2018-01-02T07:34:24.983Z,10.42
2018-01-02T07:35:35.026Z,10.39
2018-01-02T07:36:45.063Z,10.46
2018-01-02T07:37:55.092Z,10.58
2018-01-02T07:39:05.194Z,10.54
2018-01-02T07:40:15.257Z,10.59
2018-01-02T07:41:25.321Z,10.65
2018-01-02T07:42:35.123Z,10.76
2018-01-02T07:43:44.905Z,10.83
2018-01-02T07:44:54.445Z,10.8
2018-01-02T07:46:04.263Z,10.85
2018-01-02T07:47:14.322Z,10.94
2018-01-02T07:48:24.122Z,10.97
2018-01-02T07:49:34.182Z,11.05
2018-01-02T07:50:44.329Z,11.06
2018-01-02T07:51:54.381Z,11.05
2018-01-02T07:53:04.180Z,11.1
2018-01-02T07:54:14.242Z,11.18
2018-01-02T07:55:24.314Z,11.16
2018-01-02T07:56:34.095Z,11.15
2018-01-02T07:57:44.142Z,11.24
2018-01-02T07:58:54.186Z,11.33
2018-01-02T08:00:04.250Z,11.39
2018-01-02T08:01:14.298Z,11.46
2018-01-02T08:02:24.095Z,11.6
2018-01-02T08:03:33.881Z,11.75
2018-01-02T08:04:43.932Z,11.75
2018-01-02T08:05:53.986Z,11.81
2018-01-02T08:07:04.047Z,11.94
2018-01-02T08:08:14.108Z,11.98
2018-01-02T08:09:24.178Z,12
2018-01-02T08:10:34.235Z,12.18
2018-01-02T08:11:43.769Z,12.15
2018-01-02T08:12:53.898Z,12.28
2018-01-02T08:14:04.017Z,12.22
2018-01-02T08:15:14.058Z,12.29
2018-01-02T08:16:24.123Z,12.34
2018-01-02T08:17:34.177Z,12.43
2018-01-02T08:18:44.214Z,12.41
2018-01-02T08:19:54.010Z,12.61
2018-01-02T08:21:03.800Z,12.59
2018-01-02T08:22:13.882Z,12.65
2018-01-02T08:23:23.928Z,12.59
2018-01-02T08:24:33.977Z,12.7
2018-01-02T08:25:44.031Z,12.86
2018-01-02T08:26:54.160Z,12.95
2018-01-02T08:28:04.217Z,12.89
2018-01-02T08:29:14.278Z,13.06
2018-01-02T08:30:24.066Z,13.16
2018-01-02T08:31:34.227Z,13.28
2018-01-02T08:32:44.274Z,13.36
2018-01-02T08:33:54.135Z,13.48
2018-01-02T08:35:04.191Z,13.54
2018-01-02T08:36:13.732Z,13.53
2018-01-02T08:37:24.832Z,13.75
2018-01-02T08:38:34.885Z,13.76
2018-01-02T08:39:44.660Z,13.88
2018-01-02T08:40:54.695Z,13.94
2018-01-02T08:42:04.489Z,13.86
2018-01-02T08:43:14.553Z,13.87
2018-01-02T08:44:24.340Z,13.87
2018-01-02T08:45:34.392Z,14.08
2018-01-02T08:46:44.445Z,14.2
2018-01-02T08:47:54.506Z,14.3
2018-01-02T08:49:04.304Z,14.26
2018-01-02T08:50:14.086Z,14.41
2018-01-02T08:51:23.867Z,14.49
2018-01-02T08:52:33.913Z,14.57
2018-01-02T08:53:43.954Z,14.63
2018-01-02T08:54:53.513Z,14.67
2018-01-02T08:56:03.564Z,14.59
2018-01-02T08:57:13.611Z,14.48
2018-01-02T08:58:23.665Z,14.53
2018-01-02T08:59:33.469Z,14.45
2018-01-02T09:00:43.579Z,14.39
2018-01-02T09:01:54.225Z,14.3
2018-01-02T09:03:04.305Z,14.36
2018-01-02T09:04:14.110Z,14.33
2018-01-02T09:05:23.647Z,14.26
2018-01-02T09:06:33.714Z,14.26
2018-01-02T09:07:43.522Z,14.19
2018-01-02T09:08:53.622Z,14.13
2018-01-02T09:10:02.848Z,14.16
2018-01-02T09:11:12.910Z,14.19
2018-01-02T09:12:22.706Z,14.15
2018-01-02T09:13:32.758Z,14.13
2018-01-02T09:14:42.876Z,14.06
2018-01-02T09:15:52.941Z,14.05
2018-01-02T09:17:03.001Z,14.09
2018-01-02T09:18:12.848Z,13.97
2018-01-02T09:19:22.910Z,13.93
2018-01-02T09:20:32.965Z,13.91
2018-01-02T09:21:43.084Z,13.88
2018-01-02T09:22:53.189Z,13.9
2018-01-02T09:24:03.237Z,13.88
2018-01-02T09:25:13.299Z,13.83
2018-01-02T09:26:23.098Z,13.86
2018-01-02T09:27:33.170Z,13.94
2018-01-02T09:28:43.229Z,13.87
2018-01-02T09:29:53.269Z,13.72
2018-01-02T09:31:03.315Z,13.69
2018-01-02T09:32:13.362Z,13.62
2018-01-02T09:33:23.156Z,13.62
2018-01-02T09:34:33.206Z,13.63
2018-01-02T09:35:43.014Z,13.57
2018-01-02T09:36:53.096Z,13.53
2018-01-02T09:38:03.143Z,13.48
2018-01-02T09:39:12.955Z,13.53
2018-01-02T09:40:23.079Z,13.47
2018-01-02T09:41:33.145Z,13.48
2018-01-02T09:42:43.908Z,13.5
2018-01-02T09:43:53.700Z,13.44
2018-01-02T09:45:03.759Z,13.5
2018-01-02T09:46:13.842Z,13.42
2018-01-02T09:47:23.895Z,13.36
2018-01-02T09:48:33.954Z,13.48
2018-01-02T09:49:44.022Z,13.47
2018-01-02T09:50:54.089Z,13.44
2018-01-02T09:52:04.153Z,13.47
2018-01-02T09:53:14.208Z,13.57
2018-01-02T09:54:24.264Z,13.63
2018-01-02T09:55:34.055Z,13.58
2018-01-02T09:56:44.105Z,13.62
2018-01-02T09:57:54.186Z,13.6
2018-01-02T09:59:04.291Z,13.62
2018-01-02T10:00:14.100Z,13.65
2018-01-02T10:01:24.137Z,13.53
2018-01-02T10:02:34.208Z,13.55
2018-01-02T10:03:44.267Z,13.55
2018-01-02T10:04:54.362Z,13.53
2018-01-02T10:06:04.159Z,13.51
2018-01-02T10:07:13.954Z,13.58
2018-01-02T10:08:24.006Z,13.53
2018-01-02T10:09:33.812Z,13.58
2018-01-02T10:10:43.872Z,13.62
2018-01-02T10:11:53.940Z,13.62
2018-01-02T10:13:03.999Z,13.53
2018-01-02T10:14:13.799Z,13.63
2018-01-02T10:15:23.858Z,13.66
2018-01-02T10:16:33.652Z,13.7
2018-01-02T10:17:43.721Z,13.63
2018-01-02T10:18:53.821Z,13.72
2018-01-02T10:20:03.867Z,13.73
2018-01-02T10:21:13.911Z,13.73
2018-01-02T10:22:23.819Z,13.72
2018-01-02T10:23:33.875Z,13.76
2018-01-02T10:24:43.677Z,13.73
2018-01-02T10:25:53.743Z,13.73
2018-01-02T10:27:03.020Z,13.68
2018-01-02T10:28:13.073Z,13.66
2018-01-02T10:29:23.123Z,13.62
2018-01-02T10:30:33.165Z,13.65
2018-01-02T10:31:43.227Z,13.57
2018-01-02T10:32:53.298Z,13.6
2018-01-02T10:34:03.361Z,13.57
2018-01-02T10:35:13.438Z,13.68
2018-01-02T10:36:23.235Z,13.88
2018-01-02T10:37:33.285Z,13.95
2018-01-02T10:38:43.384Z,13.87
2018-01-02T10:39:53.445Z,14.02
2018-01-02T10:41:03.495Z,14.01
2018-01-02T10:42:13.599Z,13.97
2018-01-02T10:43:23.657Z,13.97
2018-01-02T10:44:33.711Z,13.94
2018-01-02T10:45:43.493Z,13.93
2018-01-02T10:46:53.546Z,14.01
2018-01-02T10:48:03.606Z,13.94
2018-01-02T10:49:13.692Z,14.05
2018-01-02T10:50:23.746Z,14.08
2018-01-02T10:51:33.798Z,14.19
2018-01-02T10:52:43.844Z,14.2
2018-01-02T10:53:53.634Z,14.24
2018-01-02T10:55:03.696Z,14.16
2018-01-02T10:56:13.765Z,14.27
2018-01-02T10:57:23.850Z,14.28
2018-01-02T10:58:33.906Z,14.34
2018-01-02T10:59:43.703Z,14.31
2018-01-02T11:00:53.786Z,14.45
2018-01-02T11:02:03.870Z,14.42
2018-01-02T11:03:13.686Z,14.42
2018-01-02T11:04:23.741Z,14.3
2018-01-02T11:05:33.547Z,14.31
2018-01-02T11:06:43.616Z,14.27
2018-01-02T11:07:53.673Z,14.28
2018-01-02T11:09:03.728Z,14.27
2018-01-02T11:10:13.784Z,14.31
2018-01-02T11:11:23.847Z,14.23
2018-01-02T11:12:33.918Z,14.28
2018-01-02T11:13:43.970Z,14.23
2018-01-02T11:14:54.022Z,14.19
2018-01-02T11:16:04.160Z,14.2
2018-01-02T11:17:14.211Z,14.08
2018-01-02T11:18:24.282Z,14.06
2018-01-02T11:19:34.338Z,14.06
2018-01-02T11:20:43.888Z,14.02
2018-01-02T11:21:53.946Z,14.06
2018-01-02T11:23:04.018Z,13.95
2018-01-02T11:24:13.822Z,13.95
2018-01-02T11:25:23.887Z,13.87
2018-01-02T11:26:33.988Z,13.78
2018-01-02T11:27:44.051Z,13.7
2018-01-02T11:28:54.100Z,13.72
2018-01-02T11:30:03.682Z,13.7
2018-01-02T11:31:13.760Z,13.68
2018-01-02T11:32:23.823Z,13.68
2018-01-02T11:33:33.633Z,13.68
2018-01-02T11:34:43.687Z,13.62
2018-01-02T11:35:53.221Z,13.58
2018-01-02T11:37:03.346Z,13.66
2018-01-02T11:38:13.430Z,13.58
2018-01-02T11:39:23.482Z,13.66
2018-01-02T11:40:33.554Z,13.66
2018-01-02T11:41:43.822Z,13.6
2018-01-02T11:42:53.933Z,13.66
2018-01-02T11:44:03.986Z,13.68
2018-01-02T11:45:14.049Z,13.69
2018-01-02T11:46:24.120Z,13.69
2018-01-02T11:47:33.911Z,13.69
2018-01-02T11:48:44.023Z,13.79
2018-01-02T11:49:54.119Z,13.73
2018-01-02T11:51:04.196Z,13.72
2018-01-02T11:52:14.272Z,13.75
2018-01-02T11:53:23.821Z,13.75
2018-01-02T11:54:33.634Z,13.73
2018-01-02T11:55:43.705Z,13.75
2018-01-02T11:56:53.526Z,13.72
2018-01-02T11:58:03.608Z,13.63
2018-01-02T11:59:13.670Z,13.66
2018-01-02T12:00:23.727Z,13.7
2018-01-02T12:01:33.782Z,13.66
2018-01-02T12:02:43.839Z,13.75
2018-01-02T12:03:53.888Z,13.75
2018-01-02T12:05:03.704Z,13.84
2018-01-02T12:06:13.751Z,13.78
2018-01-02T12:07:23.831Z,13.84
2018-01-02T12:08:33.377Z,13.78
2018-01-02T12:09:43.442Z,13.73
2018-01-02T12:10:53.255Z,13.79
2018-01-02T12:12:03.068Z,13.84
2018-01-02T12:13:13.156Z,13.84
2018-01-02T12:14:23.201Z,13.87
2018-01-02T12:15:33.267Z,13.83
2018-01-02T12:16:43.103Z,13.88
2018-01-02T12:17:53.168Z,13.95
2018-01-02T12:19:03.306Z,14.11
2018-01-02T12:20:13.104Z,14.19
2018-01-02T12:21:22.926Z,14.23
2018-01-02T12:22:32.988Z,14.23
2018-01-02T12:23:43.066Z,14.16
2018-01-02T12:24:52.857Z,14.06
2018-01-02T12:26:02.661Z,14.09
2018-01-02T12:27:12.723Z,14.11
2018-01-02T12:28:22.529Z,13.97
2018-01-02T12:29:32.597Z,14.05
2018-01-02T12:30:42.406Z,14.01
2018-01-02T12:31:52.483Z,14.06
2018-01-02T12:33:02.542Z,14.21
2018-01-02T12:34:12.606Z,14.23
2018-01-02T12:35:22.726Z,14.38
2018-01-02T12:36:32.597Z,14.11
2018-01-02T12:37:42.663Z,14.09
2018-01-02T12:38:52.461Z,13.95
2018-01-02T12:40:02.726Z,13.84
2018-01-02T12:41:12.803Z,13.7
2018-01-02T12:42:22.885Z,13.66
2018-01-02T12:43:32.954Z,13.63
2018-01-02T12:44:43.005Z,13.6
2018-01-02T12:45:53.071Z,13.55
2018-01-02T12:47:02.890Z,13.58
2018-01-02T12:48:12.985Z,13.62
2018-01-02T12:49:22.822Z,13.6
2018-01-02T12:50:32.395Z,13.62
2018-01-02T12:51:42.453Z,13.66
2018-01-02T12:52:52.550Z,13.51
2018-01-02T12:54:02.657Z,13.63
2018-01-02T12:55:12.471Z,13.51
2018-01-02T12:56:22.524Z,13.62
2018-01-02T12:57:32.606Z,13.58
2018-01-02T12:58:42.697Z,13.58
2018-01-02T12:59:52.754Z,13.63
2018-01-02T13:01:02.821Z,13.53
2018-01-02T13:02:12.913Z,13.47
2018-01-02T13:03:22.973Z,13.47
2018-01-02T13:04:33.056Z,13.42
2018-01-02T13:05:42.908Z,13.48
2018-01-02T13:06:52.985Z,13.39
2018-01-02T13:08:02.782Z,13.47
2018-01-02T13:09:12.317Z,13.35
2018-01-02T13:10:22.385Z,13.37
2018-01-02T13:11:32.514Z,13.25
2018-01-02T13:12:42.575Z,13.24
2018-01-02T13:13:52.632Z,13.28
2018-01-02T13:15:02.453Z,13.16
2018-01-02T13:16:11.991Z,13.17
2018-01-02T13:17:22.078Z,13.14
2018-01-02T13:18:32.148Z,13.09
2018-01-02T13:19:42.204Z,13.09
2018-01-02T13:20:52.265Z,12.99
2018-01-02T13:22:02.313Z,13.01
2018-01-02T13:23:12.402Z,12.98
2018-01-02T13:24:22.492Z,12.98
2018-01-02T13:25:32.560Z,12.92
2018-01-02T13:26:42.397Z,12.95
2018-01-02T13:27:52.208Z,12.92
2018-01-02T13:29:02.331Z,12.8
2018-01-02T13:30:12.430Z,12.86
2018-01-02T13:31:21.960Z,12.78
2018-01-02T13:32:32.024Z,12.78
2018-01-02T13:33:41.855Z,12.8
2018-01-02T13:34:51.964Z,12.77
2018-01-02T13:36:02.039Z,12.77
2018-01-02T13:37:12.125Z,12.77
2018-01-02T13:38:21.932Z,12.74
2018-01-02T13:39:32.000Z,12.71
2018-01-02T13:40:42.113Z,12.7
2018-01-02T13:41:51.920Z,12.55
2018-01-02T13:43:01.977Z,12.69
2018-01-02T13:44:12.058Z,12.65
2018-01-02T13:45:22.168Z,12.56
2018-01-02T13:46:32.219Z,12.58
2018-01-02T13:47:42.269Z,12.58
2018-01-02T13:48:52.080Z,12.47
2018-01-02T13:50:02.143Z,12.45
2018-01-02T13:51:11.937Z,12.52
2018-01-02T13:52:21.981Z,12.45
2018-01-02T13:53:32.040Z,12.47
2018-01-02T13:54:42.135Z,12.43
2018-01-02T13:55:52.213Z,12.48
2018-01-02T13:57:02.276Z,12.53
2018-01-02T13:58:12.352Z,12.52
2018-01-02T13:59:22.194Z,12.58
2018-01-02T14:00:31.990Z,12.55
2018-01-02T14:01:42.069Z,12.53
2018-01-02T14:02:51.893Z,12.47
2018-01-02T14:04:01.723Z,12.4
2018-01-02T14:05:11.858Z,12.44
2018-01-02T14:06:21.645Z,12.37
2018-01-02T14:07:31.453Z,12.25
2018-01-02T14:08:41.252Z,12.22
2018-01-02T14:09:51.329Z,12.13
2018-01-02T14:11:01.466Z,12.16
2018-01-02T14:12:11.521Z,12.11
2018-01-02T14:13:21.635Z,12.16
2018-01-02T14:14:31.713Z,12.08
2018-01-02T14:15:41.778Z,12.03
2018-01-02T14:16:51.851Z,12.04
2018-01-02T14:18:01.683Z,12.04
2018-01-02T14:19:11.750Z,12
2018-01-02T14:20:21.815Z,11.98
2018-01-02T14:21:31.858Z,11.95
2018-01-02T14:22:41.917Z,11.89
2018-01-02T14:23:52.004Z,11.86
2018-01-02T14:25:02.071Z,11.78
2018-01-02T14:26:12.162Z,11.76
2018-01-02T14:27:22.220Z,11.71
2018-01-02T14:28:32.300Z,11.64
2018-01-02T14:29:42.096Z,11.7
2018-01-02T14:30:52.172Z,11.61
2018-01-02T14:32:02.237Z,11.48
2018-01-02T14:33:12.307Z,11.43
2018-01-02T14:34:22.395Z,11.39
2018-01-02T14:35:32.488Z,11.41
2018-01-02T14:36:42.280Z,11.35
2018-01-02T14:37:52.333Z,11.28
2018-01-02T14:39:02.388Z,11.23
2018-01-02T14:40:12.452Z,11.24
2018-01-02T14:41:22.523Z,11.21
2018-01-02T14:42:32.578Z,11.15
2018-01-02T14:43:42.655Z,11.12
2018-01-02T14:44:52.712Z,11.1
2018-01-02T14:46:02.774Z,11.02
2018-01-02T14:47:12.845Z,11.1
2018-01-02T14:48:22.933Z,10.94
2018-01-02T14:49:32.988Z,10.95
2018-01-02T14:50:42.783Z,10.97
2018-01-02T14:51:52.590Z,10.85
2018-01-02T14:53:02.723Z,10.9
2018-01-02T14:54:12.781Z,10.92
2018-01-02T14:55:22.862Z,10.85
2018-01-02T14:56:32.662Z,10.92
2018-01-02T14:57:42.453Z,10.84
2018-01-02T14:58:52.277Z,10.85
2018-01-02T15:00:02.323Z,10.97
2018-01-02T15:01:12.368Z,10.76
2018-01-02T15:02:22.180Z,10.84
2018-01-02T15:03:32.250Z,10.77
2018-01-02T15:04:42.331Z,10.72
2018-01-02T15:05:52.394Z,10.8
2018-01-02T15:07:02.485Z,10.7
2018-01-02T15:08:12.295Z,10.7
2018-01-02T15:09:22.350Z,10.67
2018-01-02T15:10:32.177Z,10.65
2018-01-02T15:11:41.994Z,10.58
2018-01-02T15:12:51.780Z,10.58
2018-01-02T15:14:01.839Z,10.51
2018-01-02T15:15:11.382Z,10.52
2018-01-02T15:16:21.533Z,10.49
2018-01-02T15:17:31.331Z,10.41
2018-01-02T15:18:41.402Z,10.41
2018-01-02T15:19:51.210Z,10.44
2018-01-02T15:21:01.280Z,10.42
2018-01-02T15:22:11.431Z,10.39
2018-01-02T15:23:21.522Z,10.36
2018-01-02T15:24:31.602Z,10.41
2018-01-02T15:25:41.677Z,10.41
2018-01-02T15:26:51.491Z,10.38
2018-01-02T15:28:02.638Z,10.42
2018-01-02T15:29:12.729Z,10.28
2018-01-02T15:30:22.564Z,10.36
2018-01-02T15:31:32.656Z,10.32
2018-01-02T15:32:42.464Z,10.39
2018-01-02T15:33:52.565Z,10.31
2018-01-02T15:35:02.643Z,10.35
2018-01-02T15:37:35.217Z,10.26
2018-01-02T15:38:45.293Z,10.29
2018-01-02T15:39:55.400Z,10.29
2018-01-02T15:41:05.236Z,10.26
2018-01-02T15:42:15.035Z,10.26
2018-01-02T15:43:25.109Z,10.21
2018-01-02T15:44:35.232Z,10.13
2018-01-02T15:45:45.310Z,10.23
2018-01-02T15:46:55.369Z,10.13
2018-01-02T15:48:04.952Z,10.15
2018-01-02T15:49:14.764Z,10.14